This is the latest recevied weather packets stored in our database for station/object DB2YI-13. If no packets are shown the sender has not sent any weather packets the latest 10 day(s).
| Time | Temp. | Humidity | Pressure | Rain* | Wind** | Luminosity | Snow |
|---|---|---|---|---|---|---|---|
| 1777803005 | 21.67° C | 48% | - | 0 mm | - | - | - |
| 1777802401 | 21.11° C | 49% | - | 0 mm | - | - | - |
| 1777801802 | 21.67° C | 50% | - | 0 mm | - | - | - |
| 1777800601 | 20° C | 52% | - | 0 mm | - | - | - |
| 1777800002 | 20° C | 51% | - | 0 mm | - | - | - |
| 1777799402 | 19.44° C | 57% | - | 0 mm | - | - | - |
| 1777798802 | 18.89° C | 59% | - | 0 mm | - | - | - |
| 1777798202 | 18.89° C | 59% | - | 0 mm | - | - | - |
| 1777797601 | 18.89° C | 61% | - | 0 mm | - | - | - |
| 1777797002 | 18.89° C | 62% | - | 0 mm | - | - | - |
| 1777796401 | 17.22° C | 70% | - | 0 mm | - | - | - |
| 1777795801 | 16.67° C | 74% | - | 0 mm | - | - | - |
| 1777795201 | 15° C | 78% | - | 0 mm | - | - | - |
| 1777794001 | 12.78° C | 82% | - | 0 mm | - | - | - |
| 1777793401 | 12.78° C | 83% | - | 0 mm | - | - | - |
| 1777792801 | 12.22° C | 84% | - | 0 mm | - | - | - |
| 1777792201 | 11.67° C | 85% | - | 0 mm | - | - | - |
| 1777791601 | 11.67° C | 85% | - | 0 mm | - | - | - |
| 1777791001 | 11.67° C | 85% | - | 0 mm | - | - | - |
| 1777790402 | 11.11° C | 86% | - | 0 mm | - | - | - |
| 1777789801 | 10.56° C | 87% | - | 0 mm | - | - | - |
| 1777789201 | 10.56° C | 88% | - | 0 mm | - | - | - |
| 1777788602 | 10° C | 88% | - | 0 mm | - | - | - |
| 1777788001 | 10° C | 88% | - | 0 mm | - | - | - |
| 1777787401 | 10.56° C | 89% | - | 0 mm | - | - | - |
* Rain latest hour (hover to see other rain measurements)
** Current wind speed in m/s (hover to see current wind gust speed)